Braman, Oklahoma
Current Conditions -  °F | °C
As of 7:15 AM on Wednesday 22 Oct 2014 (Local Time) from KBKN Reporting Station
Haze Haze  
Wind Chill: 57°   Ceiling: Unl
Heat Index: 57°   Visibility: 4mi
Dew Point: 55°   Wind: 6mph
Humidity: 94%   Direction: 120°ESE
Pressure: 30.1"   Gusts: NA
Location:  36.92°N, 97.33°W
Report Text: KBKN 221215Z AUTO 12005KT 4SM BR FEW060 14/13 A3010 RMK AO2
Loading
Personal Weather Stations






























Interactive Weather Map
Tropical Storm Tracking
New forecast layout! Learn more

10-Day Weather Forecast

Advertisements
Track Severe Weather on mobile